createdAt,value
2022-09-21T00:02:02.659Z,11.24
2022-09-21T00:04:46.929Z,11.26
2022-09-21T00:07:26.111Z,12.32
2022-09-21T00:10:05.621Z,12.04
2022-09-21T00:12:55.249Z,12.08
2022-09-21T00:15:28.824Z,12.34
2022-09-21T00:18:12.913Z,12.39
2022-09-21T00:20:50.533Z,12.31
2022-09-21T00:23:51.227Z,12.35
2022-09-21T00:26:54.819Z,11.96
2022-09-21T00:29:31.850Z,12.28
2022-09-21T00:32:18.606Z,11.57
2022-09-21T00:34:54.516Z,12.13
2022-09-21T00:37:46.524Z,12.53
2022-09-21T00:40:35.242Z,12.77
2022-09-21T00:43:37.974Z,12.60
2022-09-21T00:46:57.763Z,12.40
2022-09-21T00:49:33.644Z,12.18
2022-09-21T00:52:09.269Z,12.65
2022-09-21T00:55:08.628Z,12.42
2022-09-21T00:58:17.324Z,12.38
2022-09-21T01:01:03.048Z,11.88
2022-09-21T01:03:41.003Z,12.10
2022-09-21T01:06:40.741Z,12.43
2022-09-21T01:09:24.932Z,12.42
2022-09-21T01:12:51.178Z,12.34
2022-09-21T01:16:32.899Z,12.79
2022-09-21T01:19:59.052Z,12.60
2022-09-21T01:23:26.270Z,12.79
2022-09-21T01:26:18.767Z,13.15
2022-09-21T01:29:52.496Z,13.14
2022-09-21T01:32:45.258Z,13.88
2022-09-21T01:35:21.284Z,14.01
2022-09-21T01:37:59.615Z,13.12
2022-09-21T01:40:45.448Z,13.32
2022-09-21T01:43:30.472Z,13.92
2022-09-21T01:46:15.182Z,13.70
2022-09-21T01:49:04.648Z,13.98
2022-09-21T01:51:41.919Z,12.89
2022-09-21T01:54:21.704Z,13.29
2022-09-21T01:57:02.612Z,12.88
2022-09-21T01:59:51.259Z,13.41
2022-09-21T02:02:45.752Z,12.74
2022-09-21T02:05:19.450Z,13.01
2022-09-21T02:07:54.820Z,13.48
2022-09-21T02:10:46.930Z,13.79
2022-09-21T02:18:26.330Z,13.54
2022-09-21T02:22:15.045Z,13.72
2022-09-21T02:25:47.733Z,13.86
2022-09-21T02:29:17.287Z,12.99
2022-09-21T02:32:23.121Z,12.51
2022-09-21T02:39:09.815Z,12.86
2022-09-21T02:42:22.964Z,12.83
2022-09-21T02:48:55.220Z,13.42
2022-09-21T02:51:50.616Z,13.32
2022-09-21T02:54:46.343Z,13.46
2022-09-21T02:57:38.541Z,12.87
2022-09-21T03:01:34.125Z,13.15
2022-09-21T03:04:43.628Z,13.29
2022-09-21T03:08:08.826Z,13.00
2022-09-21T03:11:34.390Z,13.67
2022-09-21T03:14:29.977Z,13.45
2022-09-21T03:17:06.600Z,14.43
2022-09-21T03:19:55.745Z,13.89
2022-09-21T03:22:29.303Z,14.22
2022-09-21T03:25:02.776Z,14.25
2022-09-21T03:27:37.518Z,13.75
2022-09-21T03:30:19.585Z,13.93
2022-09-21T03:33:17.779Z,13.40
2022-09-21T03:36:03.559Z,13.36
2022-09-21T03:38:57.619Z,13.94
2022-09-21T03:41:47.043Z,14.07
2022-09-21T03:44:44.810Z,13.73
2022-09-21T03:47:30.808Z,14.29
2022-09-21T03:50:23.066Z,13.93
2022-09-21T03:53:20.403Z,13.25
2022-09-21T03:56:09.349Z,13.70
2022-09-21T03:58:58.371Z,13.91
2022-09-21T04:01:49.981Z,13.85
2022-09-21T04:04:30.500Z,13.93
2022-09-21T04:07:11.729Z,13.89
2022-09-21T04:10:03.340Z,13.75
2022-09-21T04:12:58.130Z,13.42
2022-09-21T04:15:41.700Z,14.35
2022-09-21T04:18:22.951Z,14.24
2022-09-21T04:24:52.675Z,13.79
2022-09-21T04:28:01.675Z,13.79
2022-09-21T04:30:47.250Z,12.51
2022-09-21T04:33:34.874Z,13.13
2022-09-21T04:36:23.833Z,14.01
2022-09-21T04:39:42.079Z,13.59
2022-09-21T04:42:32.958Z,12.75
2022-09-21T04:45:09.761Z,13.73
2022-09-21T04:48:23.149Z,13.06
2022-09-21T04:51:18.862Z,13.30
2022-09-21T04:53:54.094Z,12.81
2022-09-21T04:56:47.020Z,13.05
2022-09-21T04:59:39.241Z,13.47
2022-09-21T05:02:35.885Z,13.38
2022-09-21T05:05:40.219Z,13.29
2022-09-21T05:08:54.804Z,13.24
2022-09-21T05:11:39.717Z,13.83
2022-09-21T05:14:23.502Z,13.33
2022-09-21T05:17:11.012Z,13.87
2022-09-21T05:20:05.351Z,13.04
2022-09-21T05:22:55.074Z,11.62
2022-09-21T05:25:50.602Z,12.91
2022-09-21T05:28:28.973Z,13.29
2022-09-21T05:31:42.435Z,13.30
2022-09-21T05:34:57.677Z,13.52
2022-09-21T05:38:00.716Z,13.89
2022-09-21T05:41:02.241Z,13.47
2022-09-21T05:43:58.736Z,13.89
2022-09-21T05:46:56.520Z,13.32
2022-09-21T05:50:12.297Z,13.62
2022-09-21T05:53:21.948Z,13.50
2022-09-21T05:56:27.054Z,13.63
2022-09-21T06:00:03.385Z,12.68
2022-09-21T06:03:31.949Z,12.74
2022-09-21T06:06:17.660Z,13.01
2022-09-21T06:09:50.695Z,13.07
2022-09-21T06:12:33.254Z,13.43
2022-09-21T06:15:25.643Z,13.61
2022-09-21T06:18:14.245Z,13.64
2022-09-21T06:20:57.285Z,12.35
2022-09-21T06:23:38.973Z,13.30
2022-09-21T06:26:32.969Z,13.94
2022-09-21T06:29:11.059Z,13.40
2022-09-21T06:35:09.260Z,14.16
2022-09-21T06:41:01.760Z,13.84
2022-09-21T06:44:04.389Z,13.90
2022-09-21T06:47:09.415Z,13.79
2022-09-21T06:49:53.369Z,14.20
2022-09-21T06:54:00.805Z,13.11
2022-09-21T07:22:12.597Z,13.23
2022-09-21T07:25:09.053Z,13.64
2022-09-21T07:31:30.816Z,13.54
2022-09-21T07:34:29.366Z,13.25
2022-09-21T07:37:44.588Z,13.78
2022-09-21T07:40:45.341Z,13.27
2022-09-21T07:43:33.653Z,13.67
2022-09-21T07:46:41.288Z,13.21
2022-09-21T07:49:27.223Z,13.35
2022-09-21T07:52:17.974Z,13.89
2022-09-21T07:55:19.609Z,13.96
2022-09-21T07:58:43.781Z,13.10
2022-09-21T08:01:40.872Z,12.96
2022-09-21T08:04:38.322Z,12.61
2022-09-21T08:07:39.245Z,13.09
2022-09-21T08:10:22.416Z,13.20
2022-09-21T08:13:20.408Z,13.28
2022-09-21T08:16:31.763Z,13.42
2022-09-21T08:19:27.001Z,12.87
2022-09-21T08:22:17.092Z,13.30
2022-09-21T08:25:11.142Z,13.43
2022-09-21T08:28:18.916Z,14.55
2022-09-21T08:31:27.414Z,13.83
2022-09-21T08:34:29.244Z,14.72
2022-09-21T08:37:30.653Z,14.99
2022-09-21T08:40:45.566Z,14.84
2022-09-21T08:44:07.510Z,14.86
2022-09-21T08:47:27.802Z,14.32
2022-09-21T08:50:25.891Z,14.65
2022-09-21T08:53:36.590Z,14.57
2022-09-21T08:57:00.687Z,14.19
2022-09-21T08:59:57.228Z,13.79
2022-09-21T09:03:00.334Z,13.73
2022-09-21T09:06:16.075Z,14.04
2022-09-21T09:09:18.004Z,13.98
2022-09-21T09:12:27.599Z,13.36
2022-09-21T09:16:02.291Z,13.68
2022-09-21T09:19:21.951Z,13.67
2022-09-21T09:22:19.237Z,13.62
2022-09-21T09:25:31.588Z,14.22
2022-09-21T09:28:59.455Z,13.72
2022-09-21T09:31:49.573Z,13.65
2022-09-21T09:35:01.335Z,13.58
2022-09-21T09:37:52.478Z,13.47
2022-09-21T09:41:16.474Z,13.31
2022-09-21T09:44:54.871Z,12.59
2022-09-21T09:48:31.742Z,12.88
2022-09-21T09:51:34.426Z,13.11
2022-09-21T09:54:29.860Z,12.78
2022-09-21T09:57:34.503Z,12.71
2022-09-21T10:00:32.611Z,13.63
2022-09-21T10:03:30.732Z,13.30
2022-09-21T10:06:59.823Z,13.02
2022-09-21T10:10:42.508Z,13.56
2022-09-21T10:14:11.810Z,13.74
2022-09-21T10:17:13.903Z,13.44
2022-09-21T10:26:47.235Z,14.06
2022-09-21T10:29:36.222Z,13.82
2022-09-21T10:32:36.182Z,13.91
2022-09-21T10:35:51.214Z,14.39
2022-09-21T10:45:55.478Z,13.45
2022-09-21T10:49:13.755Z,12.75
2022-09-21T10:52:18.940Z,12.82
2022-09-21T10:55:14.879Z,13.68
2022-09-21T10:58:09.359Z,13.59
2022-09-21T11:01:03.915Z,13.23
2022-09-21T11:04:13.104Z,13.27
2022-09-21T11:07:44.245Z,12.90
2022-09-21T11:11:13.593Z,13.27
2022-09-21T11:14:13.798Z,13.73
2022-09-21T11:17:20.971Z,13.59
2022-09-21T11:20:51.526Z,13.69
2022-09-21T11:27:59.356Z,13.93
2022-09-21T11:31:40.121Z,14.16
2022-09-21T11:34:50.243Z,13.74
2022-09-21T11:37:58.231Z,13.61
2022-09-21T11:41:10.809Z,13.71
2022-09-21T11:44:40.681Z,13.65
2022-09-21T11:47:42.416Z,13.53
2022-09-21T11:50:59.123Z,13.68
2022-09-21T11:54:35.787Z,13.46
2022-09-21T11:58:02.171Z,14.06
2022-09-21T12:01:34.602Z,13.57
2022-09-21T12:04:59.193Z,12.75
2022-09-21T12:08:37.073Z,11.94
2022-09-21T12:12:33.587Z,12.21
2022-09-21T12:17:21.948Z,12.42
2022-09-21T12:20:35.127Z,12.52
2022-09-21T12:23:35.065Z,12.31
2022-09-21T12:26:49.593Z,11.66
2022-09-21T12:29:58.818Z,11.23
2022-09-21T12:33:12.803Z,11.28
2022-09-21T12:36:37.073Z,11.45
2022-09-21T12:40:05.468Z,10.80
2022-09-21T12:48:55.981Z,7.87
2022-09-21T12:52:17.518Z,8.00
2022-09-21T12:55:45.409Z,7.07
2022-09-21T12:59:03.417Z,8.30
2022-09-21T13:01:57.866Z,8.42
2022-09-21T13:04:50.708Z,9.13
2022-09-21T13:08:08.748Z,9.97
2022-09-21T13:11:11.618Z,10.93
2022-09-21T13:14:04.917Z,11.28
2022-09-21T13:16:44.787Z,11.15
2022-09-21T13:19:30.690Z,11.17
2022-09-21T13:22:46.810Z,11.23
2022-09-21T13:25:49.912Z,11.66
2022-09-21T13:29:07.410Z,10.72
2022-09-21T13:32:08.440Z,10.53
2022-09-21T13:35:44.809Z,10.53
2022-09-21T13:38:53.200Z,10.63
2022-09-21T13:42:01.857Z,10.59
2022-09-21T13:48:40.863Z,10.70
2022-09-21T13:51:26.408Z,10.57
2022-09-21T13:54:25.633Z,11.26
2022-09-21T14:06:19.468Z,10.54
2022-09-21T14:09:43.741Z,10.83
2022-09-21T14:12:30.228Z,11.58
2022-09-21T14:15:28.181Z,11.69
2022-09-21T14:18:30.621Z,10.89
2022-09-21T14:21:26.898Z,11.34
2022-09-21T14:24:35.057Z,9.89
2022-09-21T14:27:59.491Z,10.60
2022-09-21T14:30:43.213Z,10.84
2022-09-21T14:33:31.564Z,11.50
2022-09-21T14:36:31.191Z,10.97
2022-09-21T14:39:23.143Z,11.14
2022-09-21T14:42:18.826Z,10.38
2022-09-21T14:45:19.386Z,10.74
2022-09-21T14:48:43.389Z,10.06
2022-09-21T14:51:47.204Z,10.53
2022-09-21T14:54:51.483Z,10.55
2022-09-21T14:58:05.379Z,10.69
2022-09-21T15:00:45.062Z,10.97
2022-09-21T15:03:58.247Z,10.82
2022-09-21T15:07:26.183Z,10.39
2022-09-21T15:10:20.524Z,10.37
2022-09-21T15:14:05.874Z,9.61
2022-09-21T15:16:55.212Z,10.37
2022-09-21T15:19:42.281Z,9.72
2022-09-21T15:22:30.633Z,10.56
2022-09-21T15:25:22.523Z,10.65
2022-09-21T15:27:55.629Z,10.61
2022-09-21T15:30:42.119Z,9.38
2022-09-21T15:33:38.032Z,10.62
2022-09-21T15:36:17.325Z,8.71
2022-09-21T15:39:16.800Z,8.96
2022-09-21T15:42:21.506Z,8.02
2022-09-21T15:45:16.044Z,8.57
2022-09-21T15:47:50.851Z,7.62
2022-09-21T15:50:34.998Z,8.20
2022-09-21T15:54:06.000Z,9.29
2022-09-21T15:56:50.808Z,10.26
2022-09-21T15:59:32.329Z,10.86
2022-09-21T16:02:31.016Z,10.36
2022-09-21T16:05:23.269Z,10.94
2022-09-21T16:08:21.297Z,10.30
2022-09-21T16:10:53.687Z,10.47
2022-09-21T16:13:53.479Z,10.87
2022-09-21T16:16:35.731Z,9.96
2022-09-21T16:19:20.972Z,10.51
2022-09-21T16:22:18.189Z,10.13
2022-09-21T16:25:06.514Z,10.53
2022-09-21T16:28:00.080Z,9.85
2022-09-21T16:30:57.450Z,9.72
2022-09-21T16:33:50.949Z,9.20
2022-09-21T16:36:42.107Z,10.19
2022-09-21T16:39:27.028Z,10.50
2022-09-21T16:42:17.736Z,10.29
2022-09-21T16:44:53.365Z,9.43
2022-09-21T16:47:54.073Z,9.44
2022-09-21T16:50:34.183Z,9.78
2022-09-21T16:53:17.363Z,9.58
2022-09-21T16:56:06.410Z,10.08
2022-09-21T16:58:54.707Z,9.78
2022-09-21T17:01:38.714Z,9.16
2022-09-21T17:04:19.020Z,9.68
2022-09-21T17:07:01.572Z,9.46
2022-09-21T17:09:49.863Z,9.53
2022-09-21T17:12:30.066Z,10.52
2022-09-21T17:15:11.216Z,10.64
2022-09-21T17:17:50.072Z,10.50
2022-09-21T17:20:34.047Z,10.71
2022-09-21T17:23:19.686Z,10.72
2022-09-21T17:25:58.198Z,9.22
2022-09-21T17:28:40.483Z,10.50
2022-09-21T17:31:31.570Z,10.65
2022-09-21T17:34:16.150Z,10.75
2022-09-21T17:36:51.156Z,10.29
2022-09-21T17:39:35.985Z,10.03
2022-09-21T17:42:30.863Z,10.53
2022-09-21T17:45:24.028Z,10.69
2022-09-21T17:48:14.211Z,11.54
2022-09-21T17:51:01.541Z,11.48
2022-09-21T17:53:47.904Z,11.48
2022-09-21T17:56:30.028Z,11.15
2022-09-21T17:59:32.750Z,11.01
2022-09-21T18:02:30.874Z,10.98
2022-09-21T18:05:44.024Z,11.55
2022-09-21T18:09:02.711Z,10.90
2022-09-21T18:12:47.722Z,10.42
2022-09-21T18:15:45.149Z,10.08
2022-09-21T18:18:46.973Z,10.11
2022-09-21T18:21:33.021Z,10.35
2022-09-21T18:24:37.499Z,10.12
2022-09-21T18:27:23.682Z,10.17
2022-09-21T18:30:03.509Z,9.89
2022-09-21T18:33:22.203Z,10.29
2022-09-21T18:36:29.145Z,10.36
2022-09-21T18:39:23.079Z,9.14
2022-09-21T18:42:42.211Z,9.46
2022-09-21T18:45:26.219Z,9.93
2022-09-21T18:48:18.887Z,9.88
2022-09-21T18:51:18.425Z,9.44
2022-09-21T18:54:09.177Z,9.50
2022-09-21T18:56:42.380Z,9.46
2022-09-21T18:59:32.174Z,10.47
2022-09-21T19:02:15.829Z,9.46
2022-09-21T19:04:54.180Z,8.79
2022-09-21T19:07:53.005Z,9.80
2022-09-21T19:10:50.844Z,9.50
2022-09-21T19:13:46.245Z,9.64
2022-09-21T19:16:55.237Z,8.79
2022-09-21T19:20:03.040Z,9.74
2022-09-21T19:22:54.355Z,9.88
2022-09-21T19:26:02.240Z,9.51
2022-09-21T19:28:57.775Z,9.39
2022-09-21T19:31:29.269Z,10.18
2022-09-21T19:34:27.708Z,9.20
2022-09-21T19:37:09.233Z,10.42
2022-09-21T19:39:53.992Z,9.67
2022-09-21T19:42:47.592Z,10.01
2022-09-21T19:45:49.696Z,9.82
2022-09-21T19:48:36.292Z,9.10
2022-09-21T19:51:30.719Z,9.38
2022-09-21T19:54:43.913Z,9.14
2022-09-21T19:57:40.192Z,8.70
2022-09-21T20:00:24.340Z,8.03
2022-09-21T20:03:38.439Z,8.58
2022-09-21T20:06:21.558Z,9.32
2022-09-21T20:09:14.037Z,10.37
2022-09-21T20:12:17.581Z,9.54
2022-09-21T20:15:01.806Z,10.31
2022-09-21T20:18:15.761Z,9.95
2022-09-21T20:21:05.930Z,9.18
2022-09-21T20:27:44.513Z,8.26
2022-09-21T20:31:08.972Z,9.06
2022-09-21T20:37:17.996Z,9.19
2022-09-21T20:39:55.010Z,9.85
2022-09-21T20:42:33.371Z,10.15
2022-09-21T20:45:18.685Z,10.17
2022-09-21T20:48:19.282Z,10.12
2022-09-21T20:50:56.744Z,10.54
2022-09-21T20:53:39.931Z,10.24
2022-09-21T20:56:27.129Z,10.53
2022-09-21T20:59:16.765Z,10.63
2022-09-21T21:05:38.980Z,10.21
2022-09-21T21:08:26.184Z,9.67
2022-09-21T21:11:14.842Z,9.79
2022-09-21T21:14:00.237Z,9.95
2022-09-21T21:17:01.948Z,10.32
2022-09-21T21:19:50.041Z,10.37
2022-09-21T21:22:33.986Z,10.09
2022-09-21T21:25:18.535Z,10.11
2022-09-21T21:28:03.611Z,10.08
2022-09-21T21:30:45.784Z,9.84
2022-09-21T21:33:26.550Z,9.50
2022-09-21T21:36:23.645Z,8.67
2022-09-21T21:39:06.215Z,10.13
2022-09-21T21:41:46.726Z,10.27
2022-09-21T21:44:42.628Z,10.23
2022-09-21T21:47:38.645Z,10.11
2022-09-21T21:50:12.186Z,9.80
2022-09-21T21:52:49.459Z,9.78
2022-09-21T21:55:34.650Z,10.48
2022-09-21T21:58:15.939Z,10.00
2022-09-21T22:00:53.523Z,10.20
2022-09-21T22:04:22.463Z,10.12
2022-09-21T22:07:14.172Z,10.23
2022-09-21T22:09:53.374Z,10.43
2022-09-21T22:12:37.728Z,10.94
2022-09-21T22:15:21.696Z,10.61
2022-09-21T22:18:04.310Z,10.62
2022-09-21T22:20:51.924Z,10.98
2022-09-21T22:23:34.306Z,10.92
2022-09-21T22:26:23.971Z,11.20
2022-09-21T22:29:38.834Z,10.52
2022-09-21T22:32:21.620Z,11.21
2022-09-21T22:34:58.652Z,10.87
2022-09-21T22:38:01.594Z,10.84
2022-09-21T22:41:08.749Z,10.96
2022-09-21T22:43:58.196Z,11.29
2022-09-21T22:47:01.569Z,11.95
2022-09-21T22:49:42.376Z,11.42
2022-09-21T22:52:26.906Z,11.27
2022-09-21T22:55:16.286Z,11.42
2022-09-21T22:57:58.475Z,11.41
2022-09-21T23:00:33.766Z,11.28
2022-09-21T23:03:27.888Z,11.01
2022-09-21T23:06:17.029Z,11.16
2022-09-21T23:08:58.365Z,11.45
2022-09-21T23:11:50.474Z,11.55
2022-09-21T23:14:40.334Z,11.56
2022-09-21T23:17:27.813Z,11.31
2022-09-21T23:20:16.923Z,11.62
2022-09-21T23:23:02.972Z,11.49
2022-09-21T23:25:46.861Z,11.57
2022-09-21T23:28:22.948Z,11.79
2022-09-21T23:31:09.476Z,12.28
2022-09-21T23:33:51.288Z,11.95
2022-09-21T23:36:46.548Z,11.88
2022-09-21T23:39:27.200Z,11.65
2022-09-21T23:42:13.375Z,11.74
2022-09-21T23:44:50.303Z,11.80
2022-09-21T23:47:34.550Z,12.31
2022-09-21T23:50:20.851Z,11.98
2022-09-21T23:53:09.948Z,11.53
2022-09-21T23:56:06.861Z,12.13
2022-09-21T23:59:20.895Z,11.84
